Sand Lake, Florida
Current Conditions -  °F | °C
As of 12:53 AM on Tuesday 21 Oct 2014 (Local Time) from KMCO Reporting Station
Overcast Overcast  
Wind Chill: 72°   Ceiling: 14000
Heat Index: 72°   Visibility: 10mi
Dew Point: 67°   Wind: 5mph
Humidity: 84%   Direction: 180°S
Pressure: 29.98"   Gusts: NA
Location:  28.4565°N, 81.4676°W
Report Text: KMCO 210453Z 18004KT 10SM FEW055 BKN140 OVC250 22/19 A2998 RMK AO2 SLP149 T02220194 403000167
Loading
Personal Weather Stations






























Interactive Weather Map
Tropical Storm Tracking
New forecast layout! Learn more

10-Day Weather Forecast

Advertisements
Track Severe Weather on mobile